LFMK/CCF METAR and TAF weather

Enter ICAO airport designator
Station Type Date Time Source
LFMK METAR 2020/11/27 15:00 UTC NOAA

LFMK 271500Z AUTO 09014KT 9000 OVC005/// ///TCU 12/11 Q1013 TEMPO SHRA


Station Type Date Time Source
LFMK Decoded METAR 2020/11/27 15:00 UTC NOAA

Carcassonne, France (LFMK) 43-13N 002-19E 130M
Nov 27, 2020 - 10:00 AM EST / 2020.11.27 1500 UTC
Wind: from the E (090 degrees) at 16 MPH (14 KT):0
Visibility: 5 mile(s):0
Sky conditions: overcast
Weather: Towering cumulus clouds observed
Temperature: 53 F (12 C)
Dew Point: 51 F (11 C)
Relative Humidity: 93%
Pressure (altimeter): 29.91 in. Hg (1013 hPa)
ob: LFMK 271500Z AUTO 09014KT 9000 OVC005/// ///TCU 12/11 Q1013 TEMPO SHRA
cycle: 15

Station Type Date Time Source
LFMK TAF 2020/11/27 15:51 UTC NOAA

TAF LFMK 271400Z 2715/2815 09015KT 9999 BKN014
TEMPO 2715/2809 5000 SHRA BKN004 SCT015TCU PROB30
TEMPO 2800/2804 3000 TSRA BKN004 SCT015CB
BECMG 2809/2811 RA BKN025

Example: see airport list